createdAt,value
2019-06-26T00:01:48.340Z,7.23
2019-06-26T00:06:52.425Z,9.05
2019-06-26T00:11:57.118Z,9.05
2019-06-26T00:17:01.745Z,8.45
2019-06-26T00:22:06.141Z,9.40
2019-06-26T00:27:10.757Z,7.05
2019-06-26T00:32:14.879Z,8.25
2019-06-26T00:37:19.027Z,7.08
2019-06-26T00:47:26.730Z,8.40
2019-06-26T00:57:34.321Z,8.10
2019-06-26T01:02:38.979Z,9.73
2019-06-26T01:07:43.442Z,12.13
2019-06-26T01:12:47.800Z,9.75
2019-06-26T01:17:52.350Z,7.00
2019-06-26T01:22:58.346Z,7.80
2019-06-26T01:28:04.983Z,10.25
2019-06-26T01:33:09.177Z,10.72
2019-06-26T01:43:22.571Z,13.13
2019-06-26T01:48:28.988Z,11.40
2019-06-26T01:53:34.075Z,11.15
2019-06-26T01:58:44.420Z,7.17
2019-06-26T02:03:49.013Z,16.85
2019-06-26T02:08:55.303Z,9.85
2019-06-26T02:14:03.934Z,15.70
2019-06-26T02:19:12.239Z,11.08
2019-06-26T02:24:16.570Z,12.00
2019-06-26T02:34:24.334Z,9.10
2019-06-26T02:39:29.013Z,14.80
2019-06-26T02:44:52.134Z,14.18
2019-06-26T02:49:41.107Z,11.65
2019-06-26T02:54:46.376Z,13.58
2019-06-26T02:59:50.537Z,13.50
2019-06-26T03:05:00.926Z,12.75
2019-06-26T03:10:05.940Z,16.48
2019-06-26T03:15:10.432Z,17.15
2019-06-26T03:20:20.356Z,14.58
2019-06-26T03:25:24.677Z,16.20
2019-06-26T03:35:35.156Z,15.13
2019-06-26T03:40:44.030Z,19.20
2019-06-26T03:45:51.769Z,15.98
2019-06-26T03:50:56.249Z,18.07
2019-06-26T03:56:00.825Z,17.85
2019-06-26T04:01:05.280Z,18.98
2019-06-26T04:06:10.949Z,18.05
2019-06-26T04:11:22.173Z,22.13
2019-06-26T04:16:26.208Z,14.83
2019-06-26T04:21:33.610Z,19.70
2019-06-26T04:26:39.891Z,18.60
2019-06-26T04:31:51.707Z,20.55
2019-06-26T04:36:56.565Z,17.80
2019-06-26T04:42:04.977Z,14.35
2019-06-26T04:47:13.499Z,14.45
2019-06-26T04:52:17.547Z,17.23
2019-06-26T04:57:24.268Z,16.57
2019-06-26T05:02:28.685Z,16.62
2019-06-26T05:07:33.647Z,18.07
2019-06-26T05:12:38.474Z,16.82
2019-06-26T05:17:42.828Z,19.85
2019-06-26T05:22:47.052Z,18.65
2019-06-26T05:27:51.695Z,18.48
2019-06-26T05:32:56.533Z,18.05
2019-06-26T05:38:00.981Z,17.27
2019-06-26T05:43:07.602Z,19.25
2019-06-26T05:48:11.754Z,19.05
2019-06-26T05:53:16.299Z,17.00
2019-06-26T05:58:20.693Z,18.32
2019-06-26T06:03:25.077Z,18.27
2019-06-26T06:08:29.416Z,18.87
2019-06-26T06:13:34.011Z,21.60
2019-06-26T06:18:41.338Z,22.98
2019-06-26T06:23:48.260Z,22.90
2019-06-26T06:28:52.905Z,20.05
2019-06-26T06:34:04.776Z,17.75
2019-06-26T06:39:09.148Z,20.10
2019-06-26T06:44:13.801Z,24.07
2019-06-26T06:49:17.947Z,22.22
2019-06-26T06:54:22.240Z,19.55
2019-06-26T06:59:27.245Z,22.15
2019-06-26T07:04:31.667Z,21.50
2019-06-26T07:09:36.099Z,23.42
2019-06-26T07:14:40.251Z,18.95
2019-06-26T07:19:45.941Z,21.80
2019-06-26T07:24:50.104Z,24.90
2019-06-26T07:29:54.341Z,21.37
2019-06-26T07:34:58.523Z,19.57
2019-06-26T07:40:02.757Z,16.80
2019-06-26T07:45:07.364Z,18.02
2019-06-26T07:50:12.917Z,16.62
2019-06-26T07:55:17.291Z,15.63
2019-06-26T08:00:21.662Z,17.60
2019-06-26T08:05:26.050Z,15.98
2019-06-26T08:10:30.234Z,16.00
2019-06-26T08:15:34.676Z,15.00
2019-06-26T08:20:55.092Z,15.38
2019-06-26T08:25:45.067Z,14.63
2019-06-26T08:30:49.524Z,14.80
2019-06-26T08:35:53.727Z,15.95
2019-06-26T08:40:57.900Z,14.60
2019-06-26T08:46:02.077Z,18.67
2019-06-26T08:51:06.603Z,14.60
2019-06-26T08:56:11.633Z,12.53
2019-06-26T09:01:15.809Z,19.70
2019-06-26T09:06:20.352Z,20.23
2019-06-26T09:11:24.563Z,17.05
2019-06-26T09:16:30.291Z,13.68
2019-06-26T09:21:34.702Z,15.85
2019-06-26T09:26:38.983Z,16.07
2019-06-26T09:31:43.316Z,19.32
2019-06-26T09:36:47.417Z,13.98
2019-06-26T09:41:51.856Z,11.35
2019-06-26T09:46:56.630Z,14.98
2019-06-26T09:52:02.215Z,14.18
2019-06-26T09:57:06.414Z,9.13
2019-06-26T10:02:10.868Z,8.45
2019-06-26T10:07:15.739Z,9.30
2019-06-26T10:12:20.496Z,6.10
2019-06-26T10:17:24.890Z,8.53
2019-06-26T10:22:29.101Z,5.85
2019-06-26T10:27:33.891Z,5.87
2019-06-26T10:32:40.129Z,6.65
2019-06-26T10:37:44.482Z,6.60
2019-06-26T10:42:51.087Z,4.80
2019-06-26T10:47:55.406Z,4.65
2019-06-26T10:52:59.741Z,6.20
2019-06-26T10:58:03.852Z,6.70
2019-06-26T11:03:08.072Z,7.47
2019-06-26T11:08:12.407Z,6.55
2019-06-26T11:13:18.461Z,7.33
2019-06-26T11:18:22.622Z,6.45
2019-06-26T11:23:26.830Z,6.12
2019-06-26T11:28:30.835Z,10.53
2019-06-26T11:33:37.978Z,8.45
2019-06-26T11:38:42.453Z,5.00
2019-06-26T11:43:48.125Z,5.15
2019-06-26T11:48:52.863Z,5.50
2019-06-26T11:53:58.984Z,5.25
2019-06-26T11:59:02.794Z,5.65
2019-06-26T12:04:06.986Z,6.75
2019-06-26T12:09:11.530Z,6.95
2019-06-26T12:14:17.494Z,8.45
2019-06-26T12:19:23.583Z,6.70
2019-06-26T12:24:28.251Z,5.80
2019-06-26T12:29:33.093Z,5.92
2019-06-26T12:34:39.361Z,6.53
2019-06-26T12:39:43.944Z,7.72
2019-06-26T12:44:48.582Z,10.15
2019-06-26T12:49:53.061Z,7.92
2019-06-26T12:54:59.271Z,8.95
2019-06-26T13:00:12.597Z,8.18
2019-06-26T13:05:17.024Z,7.60
2019-06-26T13:10:23.035Z,11.28
2019-06-26T13:15:27.452Z,9.08
2019-06-26T13:20:31.660Z,10.65
2019-06-26T13:25:36.173Z,10.68
2019-06-26T13:30:40.873Z,11.45
2019-06-26T13:35:45.427Z,11.95
2019-06-26T13:41:11.121Z,12.80
2019-06-26T13:46:15.165Z,15.25
2019-06-26T13:51:21.453Z,16.87
2019-06-26T13:56:25.136Z,15.88
2019-06-26T14:01:29.633Z,11.38
2019-06-26T14:06:35.625Z,12.70
2019-06-26T14:11:40.178Z,15.40
2019-06-26T14:16:45.225Z,7.05
2019-06-26T14:21:49.585Z,8.38
2019-06-26T14:26:53.875Z,7.47
2019-06-26T14:31:58.089Z,9.10
2019-06-26T14:37:02.614Z,9.18
2019-06-26T14:42:06.788Z,10.00
2019-06-26T14:47:10.894Z,10.43
2019-06-26T14:52:18.041Z,13.83
2019-06-26T14:57:26.159Z,11.70
2019-06-26T15:02:34.855Z,11.93
2019-06-26T15:07:41.935Z,12.28
2019-06-26T15:12:46.075Z,12.63
2019-06-26T15:17:50.262Z,13.30
2019-06-26T15:22:58.890Z,10.68
2019-06-26T15:28:05.100Z,13.78
2019-06-26T15:33:09.689Z,9.30
2019-06-26T15:38:13.857Z,13.05
2019-06-26T15:43:41.300Z,11.78
2019-06-26T15:48:45.396Z,13.85
2019-06-26T15:53:49.789Z,8.48
2019-06-26T15:58:54.092Z,8.43
2019-06-26T16:03:58.318Z,10.45
2019-06-26T16:09:02.510Z,9.75
2019-06-26T16:14:06.729Z,5.62
2019-06-26T16:19:31.224Z,9.05
2019-06-26T16:24:35.728Z,5.60
2019-06-26T16:30:01.821Z,9.35
2019-06-26T16:35:06.602Z,7.83
2019-06-26T16:40:14.282Z,6.47
2019-06-26T16:45:18.731Z,10.78
2019-06-26T16:50:24.554Z,9.03
2019-06-26T16:55:28.781Z,8.40
2019-06-26T17:00:32.998Z,6.80
2019-06-26T17:05:37.623Z,5.85
2019-06-26T17:10:41.817Z,10.98
2019-06-26T17:15:46.153Z,8.95
2019-06-26T17:20:50.420Z,6.30
2019-06-26T17:25:55.419Z,11.73
2019-06-26T17:31:00.778Z,5.30
2019-06-26T17:36:04.993Z,13.50
2019-06-26T17:41:09.411Z,5.92
2019-06-26T17:46:13.560Z,8.75
2019-06-26T17:51:18.104Z,8.55
2019-06-26T17:56:22.480Z,9.68
2019-06-26T18:01:26.628Z,8.70
2019-06-26T18:06:32.335Z,9.63
2019-06-26T18:11:36.526Z,9.70
2019-06-26T18:16:42.585Z,9.98
2019-06-26T18:21:51.008Z,10.23
2019-06-26T18:26:57.531Z,9.70
2019-06-26T18:32:01.850Z,9.33
2019-06-26T18:37:06.070Z,6.00
2019-06-26T18:42:10.148Z,8.95
2019-06-26T18:47:16.897Z,5.25
2019-06-26T18:52:21.022Z,6.75
2019-06-26T18:57:28.209Z,7.78
2019-06-26T19:02:35.106Z,8.20
2019-06-26T19:07:39.515Z,4.85
2019-06-26T19:12:43.705Z,5.62
2019-06-26T19:17:48.000Z,7.70
2019-06-26T19:22:55.184Z,6.37
2019-06-26T19:27:59.372Z,9.55
2019-06-26T19:33:05.966Z,6.42
2019-06-26T19:38:10.566Z,6.47
2019-06-26T19:43:14.685Z,5.58
2019-06-26T19:53:21.916Z,5.17
2019-06-26T20:03:30.695Z,3.55
2019-06-26T20:08:34.906Z,5.58
2019-06-26T20:13:39.152Z,5.95
2019-06-26T20:23:46.831Z,3.45
2019-06-26T20:28:50.950Z,6.47
2019-06-26T20:33:55.102Z,5.62
2019-06-26T20:39:00.991Z,4.00
2019-06-26T20:44:05.155Z,4.72
2019-06-26T20:54:12.586Z,6.72
2019-06-26T20:59:16.680Z,4.87
2019-06-26T21:04:21.405Z,3.10
2019-06-26T21:09:27.209Z,6.35
2019-06-26T21:14:32.634Z,4.97
2019-06-26T21:19:37.129Z,5.37
2019-06-26T21:24:43.538Z,3.77
2019-06-26T21:29:49.010Z,5.30
2019-06-26T21:34:55.925Z,5.83
2019-06-26T21:40:00.025Z,6.08
2019-06-26T21:45:04.404Z,7.10
2019-06-26T21:55:13.587Z,5.70
2019-06-26T22:00:19.719Z,4.72
2019-06-26T22:05:24.217Z,12.85
2019-06-26T22:10:28.452Z,5.47
2019-06-26T22:15:32.975Z,6.58
2019-06-26T22:20:41.348Z,4.60
2019-06-26T22:25:50.718Z,4.62
2019-06-26T22:30:51.976Z,2.87
2019-06-26T22:35:56.447Z,4.55
2019-06-26T22:41:00.812Z,4.95
2019-06-26T22:51:08.300Z,5.45
2019-06-26T23:01:18.199Z,6.78
2019-06-26T23:06:22.274Z,6.35
2019-06-26T23:11:26.498Z,4.92
2019-06-26T23:16:30.647Z,6.00
2019-06-26T23:21:38.388Z,8.18
2019-06-26T23:26:43.941Z,4.72
2019-06-26T23:32:03.408Z,5.22
2019-06-26T23:37:09.387Z,5.65
2019-06-26T23:42:15.526Z,7.62
2019-06-26T23:47:19.505Z,4.30
2019-06-26T23:52:23.752Z,2.62
2019-06-26T23:57:28.079Z,5.45
